createdAt,value
2023-04-26T00:03:04.753Z,4.70
2023-04-26T00:08:07.850Z,3.70
2023-04-26T00:13:11.042Z,4.40
2023-04-26T00:18:13.648Z,4.30
2023-04-26T00:23:17.390Z,4.30
2023-04-26T00:28:20.259Z,3.90
2023-04-26T00:33:23.071Z,3.70
2023-04-26T00:38:25.716Z,3.60
2023-04-26T00:43:28.382Z,4.30
2023-04-26T00:48:31.062Z,4.40
2023-04-26T00:53:36.776Z,3.10
2023-04-26T00:58:39.482Z,4.40
2023-04-26T01:03:44.557Z,4.80
2023-04-26T01:08:47.328Z,4.70
2023-04-26T01:13:51.549Z,4.50
2023-04-26T01:18:54.732Z,4.40
2023-04-26T01:23:57.445Z,4.40
2023-04-26T01:28:59.976Z,5.00
2023-04-26T01:34:02.540Z,4.50
2023-04-26T01:39:05.778Z,4.60
2023-04-26T01:44:08.420Z,4.00
2023-04-26T01:49:11.141Z,4.00
2023-04-26T01:54:13.733Z,4.10
2023-04-26T01:59:16.358Z,4.00
2023-04-26T02:04:18.965Z,4.30
2023-04-26T02:09:21.570Z,4.60
2023-04-26T02:14:24.165Z,4.10
2023-04-26T02:19:26.965Z,4.20
2023-04-26T02:24:30.585Z,4.80
2023-04-26T02:29:43.974Z,4.60
2023-04-26T02:34:47.826Z,3.70
2023-04-26T02:39:51.831Z,4.30
2023-04-26T02:44:54.553Z,4.80
2023-04-26T02:49:57.248Z,4.50
2023-04-26T02:55:01.124Z,3.10
2023-04-26T03:00:05.671Z,4.10
2023-04-26T03:05:09.552Z,4.80
2023-04-26T03:10:13.028Z,4.00
2023-04-26T03:15:15.858Z,4.00
2023-04-26T03:20:19.494Z,4.30
2023-04-26T03:25:22.163Z,3.70
2023-04-26T03:30:24.836Z,4.50
2023-04-26T03:35:27.477Z,3.10
2023-04-26T03:40:30.124Z,3.80
2023-04-26T03:45:32.757Z,3.80
2023-04-26T03:50:35.368Z,1.20
2023-04-26T03:55:37.970Z,2.70
2023-04-26T04:00:43.806Z,3.90
2023-04-26T04:05:46.496Z,3.30
2023-04-26T04:10:49.377Z,3.00
2023-04-26T04:15:52.325Z,3.60
2023-04-26T04:20:55.109Z,3.30
2023-04-26T04:25:57.847Z,3.20
2023-04-26T04:31:01.879Z,2.30
2023-04-26T04:36:05.232Z,4.00
2023-04-26T04:41:08.985Z,3.10
2023-04-26T04:46:12.667Z,2.20
2023-04-26T04:51:15.646Z,2.90
2023-04-26T04:56:19.480Z,2.40
2023-04-26T05:01:22.459Z,2.40
2023-04-26T05:06:25.463Z,1.90
2023-04-26T05:11:28.230Z,2.50
2023-04-26T05:16:30.837Z,2.60
2023-04-26T05:21:33.714Z,1.60
2023-04-26T05:26:36.698Z,3.90
2023-04-26T05:31:39.323Z,3.00
2023-04-26T05:36:41.912Z,2.40
2023-04-26T05:41:44.690Z,2.00
2023-04-26T05:46:47.522Z,2.60
2023-04-26T05:51:50.324Z,2.90
2023-04-26T05:56:52.945Z,2.10
2023-04-26T06:01:55.660Z,2.40
2023-04-26T06:06:58.606Z,2.50
2023-04-26T06:12:02.355Z,2.50
2023-04-26T06:17:05.121Z,1.90
2023-04-26T06:22:07.782Z,1.90
2023-04-26T06:27:10.381Z,1.70
2023-04-26T06:32:13.071Z,2.80
2023-04-26T06:37:16.243Z,1.60
2023-04-26T06:42:18.838Z,1.90
2023-04-26T06:47:21.658Z,2.60
2023-04-26T06:52:24.384Z,1.90
2023-04-26T06:57:27.006Z,1.70
2023-04-26T07:02:29.981Z,1.90
2023-04-26T07:07:33.254Z,1.90
2023-04-26T07:12:36.041Z,1.70
2023-04-26T07:17:38.753Z,1.60
2023-04-26T07:22:41.374Z,2.20
2023-04-26T07:27:47.503Z,1.70
2023-04-26T07:32:50.426Z,1.90
2023-04-26T07:37:53.164Z,1.90
2023-04-26T07:42:55.796Z,1.80
2023-04-26T07:47:58.523Z,1.60
2023-04-26T07:53:01.122Z,1.70
2023-04-26T07:58:04.433Z,1.80
2023-04-26T08:03:08.364Z,1.80
2023-04-26T08:08:11.101Z,1.90
2023-04-26T08:13:14.205Z,1.90
2023-04-26T08:18:16.956Z,1.70
2023-04-26T08:23:19.713Z,2.00
2023-04-26T08:28:22.266Z,1.90
2023-04-26T08:33:25.729Z,2.10
2023-04-26T08:38:29.703Z,1.70
2023-04-26T08:43:35.495Z,1.80
2023-04-26T08:48:38.143Z,1.60
2023-04-26T08:53:41.883Z,1.30
2023-04-26T08:58:45.047Z,1.40
2023-04-26T09:03:48.356Z,2.00
2023-04-26T09:08:55.036Z,1.60
2023-04-26T09:13:57.767Z,1.60
2023-04-26T09:19:00.852Z,1.10
2023-04-26T09:24:04.724Z,1.10
2023-04-26T09:29:20.528Z,1.30
2023-04-26T09:34:23.267Z,2.10
2023-04-26T09:39:38.160Z,2.10
2023-04-26T09:44:40.811Z,1.10
2023-04-26T09:49:51.815Z,0.90
2023-04-26T09:54:56.910Z,1.30
2023-04-26T10:00:00.901Z,1.30
2023-04-26T10:05:06.205Z,1.00
2023-04-26T10:10:11.750Z,1.50
2023-04-26T10:15:15.515Z,1.50
2023-04-26T10:20:21.318Z,1.60
2023-04-26T10:25:39.106Z,1.50
2023-04-26T10:30:59.713Z,1.90
2023-04-26T10:36:13.770Z,1.50
2023-04-26T10:41:31.083Z,1.80
2023-04-26T10:46:40.268Z,1.50
2023-04-26T10:52:35.593Z,1.80
2023-04-26T10:57:54.352Z,1.30
2023-04-26T11:03:07.098Z,1.90
2023-04-26T11:08:25.016Z,1.70
2023-04-26T11:13:31.736Z,1.50
2023-04-26T11:18:38.765Z,2.20
2023-04-26T11:23:41.640Z,1.80
2023-04-26T11:28:45.723Z,2.60
2023-04-26T11:33:50.624Z,1.90
2023-04-26T11:38:54.276Z,1.70
2023-04-26T11:43:59.695Z,1.70
2023-04-26T11:49:02.483Z,1.60
2023-04-26T11:54:05.169Z,1.90
2023-04-26T11:59:07.992Z,1.60
2023-04-26T12:04:10.937Z,1.30
2023-04-26T12:09:13.990Z,2.00
2023-04-26T12:14:16.640Z,2.30
2023-04-26T12:19:24.146Z,1.50
2023-04-26T12:24:36.997Z,1.90
2023-04-26T12:29:39.740Z,2.00
2023-04-26T12:34:42.342Z,1.60
2023-04-26T12:39:47.062Z,1.80
2023-04-26T12:44:49.648Z,1.70
2023-04-26T12:49:52.436Z,2.10
2023-04-26T12:54:59.547Z,1.30
2023-04-26T13:00:14.787Z,1.40
2023-04-26T13:05:17.476Z,1.90
2023-04-26T13:10:20.204Z,1.60
2023-04-26T13:15:24.836Z,2.60
2023-04-26T13:20:29.594Z,1.20
2023-04-26T13:25:33.541Z,1.50
2023-04-26T13:30:36.720Z,1.30
2023-04-26T13:35:39.297Z,2.10
2023-04-26T13:40:41.890Z,1.10
2023-04-26T13:45:44.496Z,2.50
2023-04-26T13:50:47.081Z,1.50
2023-04-26T13:55:49.756Z,1.60
2023-04-26T14:00:52.613Z,2.50
2023-04-26T14:05:56.655Z,1.70
2023-04-26T14:10:59.628Z,1.20
2023-04-26T14:16:02.248Z,2.10
2023-04-26T14:21:05.329Z,1.50
2023-04-26T14:26:08.490Z,2.60
2023-04-26T14:31:11.302Z,1.30
2023-04-26T14:36:13.936Z,2.00
2023-04-26T14:41:18.346Z,1.50
2023-04-26T14:46:21.068Z,2.00
2023-04-26T14:51:24.058Z,1.90
2023-04-26T14:56:26.982Z,1.50
2023-04-26T15:01:31.263Z,2.20
2023-04-26T15:06:34.322Z,3.40
2023-04-26T15:11:36.929Z,2.60
2023-04-26T15:16:39.746Z,2.70
2023-04-26T15:21:42.511Z,3.50
2023-04-26T15:26:45.052Z,3.30
2023-04-26T15:31:47.690Z,2.80
2023-04-26T15:36:50.694Z,1.60
2023-04-26T15:41:53.331Z,1.10
2023-04-26T15:46:55.884Z,1.20
2023-04-26T15:51:58.764Z,1.30
2023-04-26T15:57:02.827Z,0.80
2023-04-26T16:02:06.150Z,1.10
2023-04-26T16:07:08.866Z,1.10
2023-04-26T16:12:11.977Z,1.00
2023-04-26T16:17:14.580Z,1.20
2023-04-26T16:22:17.761Z,0.90
2023-04-26T16:27:23.478Z,1.30
2023-04-26T16:32:26.566Z,1.00
2023-04-26T16:37:30.457Z,1.10
2023-04-26T16:42:33.293Z,1.00
2023-04-26T16:47:36.380Z,0.70
2023-04-26T16:52:39.118Z,1.20
2023-04-26T16:57:42.252Z,1.30
2023-04-26T17:02:45.034Z,1.50
2023-04-26T17:07:47.705Z,1.10
2023-04-26T17:12:50.680Z,1.20
2023-04-26T17:17:53.455Z,0.70
2023-04-26T17:22:56.818Z,1.00
2023-04-26T17:27:59.642Z,2.10
2023-04-26T17:33:02.898Z,0.90
2023-04-26T17:38:05.862Z,1.20
2023-04-26T17:43:09.011Z,1.90
2023-04-26T17:48:13.448Z,1.70
2023-04-26T17:53:16.380Z,1.60
2023-04-26T17:58:19.213Z,1.40
2023-04-26T18:03:22.087Z,1.40
2023-04-26T18:08:24.909Z,2.90
2023-04-26T18:13:28.341Z,1.50
2023-04-26T18:18:30.905Z,1.60
2023-04-26T18:23:33.533Z,1.40
2023-04-26T18:28:36.158Z,1.20
2023-04-26T18:33:38.770Z,1.50
2023-04-26T18:38:41.373Z,1.40
2023-04-26T18:43:43.952Z,2.30
2023-04-26T18:48:47.366Z,5.50
2023-04-26T18:53:50.105Z,1.50
2023-04-26T18:58:52.777Z,1.30
2023-04-26T19:03:55.729Z,4.10
2023-04-26T19:08:59.502Z,1.60
2023-04-26T19:14:02.088Z,1.70
2023-04-26T19:19:05.615Z,1.90
2023-04-26T19:24:09.135Z,1.70
2023-04-26T19:29:11.793Z,1.50
2023-04-26T19:34:14.401Z,1.30
2023-04-26T19:39:17.245Z,2.90
2023-04-26T19:44:22.524Z,1.40
2023-04-26T19:49:27.210Z,1.10
2023-04-26T19:54:32.283Z,1.00
2023-04-26T19:59:34.900Z,1.00
2023-04-26T20:04:37.559Z,1.30
2023-04-26T20:09:40.247Z,1.60
2023-04-26T20:14:42.822Z,1.40
2023-04-26T20:19:45.404Z,2.10
2023-04-26T20:24:47.961Z,2.70
2023-04-26T20:29:50.590Z,2.50
2023-04-26T20:34:53.631Z,1.30
2023-04-26T20:39:57.472Z,1.60
2023-04-26T20:45:02.224Z,0.90
2023-04-26T20:50:06.507Z,1.20
2023-04-26T20:55:09.411Z,1.30
2023-04-26T21:00:13.158Z,1.00
2023-04-26T21:05:15.818Z,1.30
2023-04-26T21:10:18.823Z,1.30
2023-04-26T21:15:21.722Z,1.50
2023-04-26T21:20:24.693Z,1.20
2023-04-26T21:25:28.000Z,1.40
2023-04-26T21:30:31.273Z,1.20
2023-04-26T21:35:34.231Z,1.60
2023-04-26T21:40:37.027Z,1.60
2023-04-26T21:45:39.963Z,1.70
2023-04-26T21:50:43.064Z,1.80
2023-04-26T21:55:53.032Z,2.10
2023-04-26T22:00:56.465Z,1.30
2023-04-26T22:05:59.338Z,1.80
2023-04-26T22:11:02.945Z,2.60
2023-04-26T22:16:06.797Z,2.20
2023-04-26T22:21:09.666Z,1.70
2023-04-26T22:26:12.533Z,1.50
2023-04-26T22:31:15.486Z,1.40
2023-04-26T22:36:18.491Z,1.40
2023-04-26T22:41:21.794Z,2.40
2023-04-26T22:46:24.677Z,3.50
2023-04-26T22:51:27.801Z,2.60
2023-04-26T22:56:30.909Z,2.50
2023-04-26T23:01:33.949Z,2.10
2023-04-26T23:06:37.120Z,2.20
2023-04-26T23:11:40.016Z,2.10
2023-04-26T23:16:42.920Z,2.80
2023-04-26T23:21:46.042Z,1.90
2023-04-26T23:26:49.046Z,1.50
2023-04-26T23:31:51.993Z,0.60
2023-04-26T23:36:54.952Z,1.10
2023-04-26T23:41:57.834Z,1.60
2023-04-26T23:47:01.121Z,1.80
2023-04-26T23:52:04.317Z,1.10
2023-04-26T23:57:07.258Z,0.70
